»·PEaware :: SWA298 KBUR-KSEA

SWA298 :: KBUR-KSEA

FLIGHT INFORMATION

Flight Status: Arrived
Operator:
Southwest Airlines
More flights by this operator :: More flights under this callsign
Pilot: Steve F. (26981)
Aircraft: BOEING 737-900
(B739)
More flights by this aircraft type
Origin: KBUR Bob Hope-Burbank
United States
Destination: KSEA Seattle-Tacoma Intl
United States
More flights between these airports :: More routes between these airports
Route: OROSZ2 CSTRO SHIMR LKV HAWKZ7
File this flight plan on PilotEdge
Remarks:
Altitude:
(Current/Filed)
36,000ft
Speed:
(Current/Filed)
430kts
Departed: 07-Aug-22 01:59 PM
Arrived: 07-Aug-22 03:15 PM
Distance/Time
Traveled:
815nm/1:16
Distance/Time
To Go:
Arrived

Flight Plot

Page will automatically refresh every two minutes.

Flight plan parsing failed; only flown route is shown


Map Options




Map Legend


Flown Route
Filed Route
Departure Airport
Arrival Airport
Navaid (VOR, NDB)
Fix

Horizontal Profiles

Position Reports

Time Latitude Longitude Heading Altitude Ground
Speed
07-Aug-22 13:18 34.196809 -118.350593 181 729ft 0kts
07-Aug-22 13:19 34.196809 -118.350593 181 729ft 0kts
07-Aug-22 13:20 34.196809 -118.350593 181 729ft 0kts
07-Aug-22 13:21 34.196809 -118.350593 181 729ft 0kts
07-Aug-22 13:22 34.196809 -118.350593 181 729ft 0kts
07-Aug-22 13:23 34.196809 -118.350593 181 729ft 0kts
07-Aug-22 13:24 34.196809 -118.350593 181 729ft 0kts
07-Aug-22 13:25 34.196809 -118.350593 181 729ft 0kts
07-Aug-22 13:26 34.196809 -118.350593 181 729ft 0kts
07-Aug-22 13:27 34.196809 -118.350593 181 729ft 0kts
07-Aug-22 13:28 34.196809 -118.350593 181 729ft 0kts
07-Aug-22 13:29 34.196809 -118.350593 181 729ft 0kts
07-Aug-22 13:30 34.196809 -118.350593 181 729ft 0kts
07-Aug-22 13:31 34.196809 -118.350593 181 729ft 0kts
07-Aug-22 13:32 34.196809 -118.350593 181 729ft 0kts
07-Aug-22 13:33 34.196809 -118.350593 181 729ft 0kts
07-Aug-22 13:34 34.196809 -118.350593 181 729ft 0kts
07-Aug-22 13:35 34.196809 -118.350593 181 729ft 0kts
07-Aug-22 13:36 34.196809 -118.350593 181 729ft 0kts
07-Aug-22 13:37 34.196809 -118.350593 181 729ft 0kts
07-Aug-22 13:38 34.196809 -118.350593 181 729ft 0kts
07-Aug-22 13:39 34.196809 -118.350593 181 729ft 0kts
07-Aug-22 13:40 34.196809 -118.350593 181 729ft 0kts
07-Aug-22 13:41 34.196809 -118.350593 181 729ft 0kts
07-Aug-22 13:42 34.196809 -118.350593 181 729ft 0kts
07-Aug-22 13:43 34.196809 -118.350593 181 729ft 0kts
07-Aug-22 13:44 34.196809 -118.350593 181 729ft 0kts
07-Aug-22 13:45 34.196809 -118.350593 181 729ft 0kts
07-Aug-22 13:46 34.196809 -118.350593 181 729ft 0kts
07-Aug-22 13:47 34.196809 -118.350593 181 729ft 0kts
07-Aug-22 13:48 34.196809 -118.350593 181 729ft 0kts
07-Aug-22 13:49 34.197062 -118.350434 250 729ft 0kts
07-Aug-22 13:50 34.197062 -118.350434 250 729ft 0kts
07-Aug-22 13:51 34.197061 -118.350437 250 729ft 0kts
07-Aug-22 13:52 34.197083 -118.350556 289 729ft 0kts
07-Aug-22 13:53 34.197145 -118.350954 276 729ft 7kts
07-Aug-22 13:54 34.197200 -118.353891 270 729ft 12kts
07-Aug-22 13:55 34.201740 -118.356157 347 729ft 25kts
07-Aug-22 13:56 34.209062 -118.358185 346 729ft 24kts
07-Aug-22 13:57 34.211760 -118.360284 167 729ft 0kts
07-Aug-22 13:58 34.185092 -118.353788 181 1305ft 175kts
07-Aug-22 13:59 34.138283 -118.393894 220 3889ft 237kts
07-Aug-22 14:00 34.091348 -118.460010 257 6369ft 281kts
07-Aug-22 14:01 34.123955 -118.545936 311 9164ft 300kts
07-Aug-22 14:03 34.188803 -118.616730 339 11070ft 349kts
07-Aug-22 14:04 34.293301 -118.635148 354 12406ft 401kts
07-Aug-22 14:05 34.404173 -118.661189 339 14691ft 416kts
07-Aug-22 14:06 34.518539 -118.692274 351 16759ft 428kts
07-Aug-22 14:07 34.637968 -118.715397 351 18615ft 440kts
07-Aug-22 14:08 34.756275 -118.756062 333 20283ft 450kts
07-Aug-22 14:09 34.865092 -118.831027 329 21677ft 460kts
07-Aug-22 14:10 34.973270 -118.905983 329 22848ft 468kts
07-Aug-22 14:11 35.086245 -118.983803 329 23869ft 476kts
07-Aug-22 14:12 35.198300 -119.061185 329 24773ft 483kts
07-Aug-22 14:13 35.315592 -119.142768 329 25678ft 488kts
07-Aug-22 14:14 35.435239 -119.223681 334 26484ft 495kts
07-Aug-22 14:15 35.568111 -119.272016 345 27229ft 502kts
07-Aug-22 14:16 35.704099 -119.312089 345 28086ft 503kts
07-Aug-22 14:17 35.839984 -119.352748 344 29058ft 501kts
07-Aug-22 14:18 35.974922 -119.393332 344 30016ft 499kts
07-Aug-22 14:19 36.110460 -119.434325 343 30899ft 499kts
07-Aug-22 14:20 36.244975 -119.475171 343 31855ft 496kts
07-Aug-22 14:21 36.378295 -119.515797 343 32804ft 493kts
07-Aug-22 14:22 36.510945 -119.556358 343 33657ft 490kts
07-Aug-22 14:23 36.643428 -119.597014 343 34406ft 489kts
07-Aug-22 14:24 36.775297 -119.637619 343 35060ft 488kts
07-Aug-22 14:25 36.906905 -119.678296 343 35655ft 487kts
07-Aug-22 14:26 37.038300 -119.719016 343 35996ft 488kts
07-Aug-22 14:27 37.169812 -119.759971 343 36019ft 486kts
07-Aug-22 14:28 37.301014 -119.800967 343 36035ft 488kts
07-Aug-22 14:29 37.433114 -119.842371 342 36059ft 489kts
07-Aug-22 14:29 37.542865 -119.876905 342 36085ft 489kts
07-Aug-22 14:30 37.675013 -119.918608 342 36076ft 490kts
07-Aug-22 14:32 37.829593 -119.967595 342 36064ft 491kts
07-Aug-22 14:33 37.961953 -120.009602 342 36079ft 491kts
07-Aug-22 14:34 38.307622 -120.108286 352 36151ft 496kts
07-Aug-22 14:34 38.726262 -120.141149 352 36255ft 496kts
07-Aug-22 14:35 39.276273 -120.192281 352 36325ft 496kts
07-Aug-22 14:36 39.816197 -120.243029 352 36250ft 495kts
07-Aug-22 14:38 40.442106 -120.302864 352 36178ft 494kts
07-Aug-22 14:38 40.897943 -120.347147 352 36180ft 494kts
07-Aug-22 14:39 41.445160 -120.401127 352 36180ft 490kts
07-Aug-22 14:40 41.987287 -120.455510 352 36206ft 488kts
07-Aug-22 14:41 42.465707 -120.505431 348 36217ft 484kts
07-Aug-22 14:43 42.611317 -120.577170 331 36216ft 477kts
07-Aug-22 14:43 42.711988 -120.639743 332 36209ft 477kts
07-Aug-22 14:44 43.106263 -120.880876 332 36212ft 477kts
07-Aug-22 14:45 43.589579 -121.180944 332 36213ft 477kts
07-Aug-22 14:46 44.059486 -121.479160 332 36222ft 477kts
07-Aug-22 14:47 44.543411 -121.790189 333 36117ft 477kts
07-Aug-22 14:48 45.024012 -122.105367 333 36035ft 478kts
07-Aug-22 14:49 45.087485 -122.147107 333 36026ft 478kts
07-Aug-22 14:50 45.461262 -122.397572 334 35989ft 477kts
07-Aug-22 14:51 45.582024 -122.478714 334 35328ft 481kts
07-Aug-22 14:52 45.702914 -122.560920 335 33308ft 486kts
07-Aug-22 14:53 45.832085 -122.613369 352 30666ft 482kts
07-Aug-22 14:54 45.964928 -122.645192 351 27965ft 486kts
07-Aug-22 14:55 46.093296 -122.677196 350 25317ft 466kts
07-Aug-22 14:56 46.219112 -122.702150 352 22615ft 447kts
07-Aug-22 14:57 46.339784 -122.724271 357 19915ft 428kts
07-Aug-22 14:58 46.456442 -122.727426 359 17326ft 410kts
07-Aug-22 14:59 46.565917 -122.731036 359 15613ft 378kts
07-Aug-22 15:00 46.667697 -122.734720 358 13986ft 353kts
07-Aug-22 15:01 46.763328 -122.737792 3 12482ft 335kts
07-Aug-22 15:02 46.841011 -122.674435 44 11221ft 314kts
07-Aug-22 15:03 46.901488 -122.589627 44 10117ft 292kts
07-Aug-22 15:04 46.956716 -122.507573 47 8959ft 275kts
07-Aug-22 15:05 47.015679 -122.439583 30 7857ft 269kts
07-Aug-22 15:06 47.080184 -122.385971 31 6756ft 263kts
07-Aug-22 15:07 47.144881 -122.340205 16 5736ft 252kts
07-Aug-22 15:08 47.210829 -122.319794 3 4883ft 231kts
07-Aug-22 15:09 47.272753 -122.319340 0 3688ft 213kts
07-Aug-22 15:10 47.329387 -122.318946 0 2586ft 193kts
07-Aug-22 15:11 47.377135 -122.318637 359 1719ft 151kts
07-Aug-22 15:12 47.417730 -122.318277 359 922ft 145kts
07-Aug-22 15:13 47.454123 -122.317958 0 441ft 63kts
07-Aug-22 15:14 47.459999 -122.313176 89 441ft 18kts
07-Aug-22 15:15 47.459652 -122.306195 169 441ft 17kts
07-Aug-22 15:16 47.452908 -122.306155 179 441ft 26kts
07-Aug-22 15:17 47.452908 -122.306155 179 441ft 26kts
07-Aug-22 15:18 47.452346 -122.306154 180 441ft 12kts
07-Aug-22 15:19 47.450862 -122.306180 181 441ft 19kts
07-Aug-22 15:20 47.450862 -122.306180 181 441ft 19kts

Navigation Log

Ident Type
Flight plan parsing failed, navigation log unavailable